createdAt,value
2018-03-30T00:00:55.020Z,78.61
2018-03-30T00:01:54.970Z,78.99
2018-03-30T00:02:54.917Z,79.08
2018-03-30T00:03:54.867Z,79.08
2018-03-30T00:04:54.816Z,78.80
2018-03-30T00:05:54.766Z,78.23
2018-03-30T00:06:54.714Z,78.42
2018-03-30T00:07:54.667Z,78.45
2018-03-30T00:08:54.615Z,78.61
2018-03-30T00:09:54.562Z,78.23
2018-03-30T00:10:54.511Z,78.42
2018-03-30T00:11:54.461Z,78.45
2018-03-30T00:12:54.410Z,78.42
2018-03-30T00:13:54.360Z,78.36
2018-03-30T00:14:54.308Z,78.42
2018-03-30T00:15:54.257Z,78.55
2018-03-30T00:16:54.207Z,78.64
2018-03-30T00:17:54.155Z,78.42
2018-03-30T00:18:54.104Z,78.45
2018-03-30T00:19:54.054Z,78.45
2018-03-30T00:20:54.003Z,78.51
2018-03-30T00:21:53.955Z,78.32
2018-03-30T00:22:53.902Z,78.55
2018-03-30T00:23:53.851Z,78.45
2018-03-30T00:24:53.800Z,78.45
2018-03-30T00:25:53.754Z,78.23
2018-03-30T00:26:53.699Z,78.23
2018-03-30T00:27:53.648Z,78.51
2018-03-30T00:28:53.599Z,78.42
2018-03-30T00:29:53.547Z,78.99
2018-03-30T00:30:53.495Z,78.61
2018-03-30T00:31:53.447Z,78.80
2018-03-30T00:32:53.394Z,78.80
2018-03-30T00:33:53.347Z,78.89
2018-03-30T00:34:53.292Z,78.89
2018-03-30T00:35:53.241Z,78.80
2018-03-30T00:36:53.191Z,78.89
2018-03-30T00:37:53.147Z,78.70
2018-03-30T00:38:53.088Z,78.80
2018-03-30T00:39:53.038Z,79.08
2018-03-30T00:40:52.987Z,78.89
2018-03-30T00:41:52.937Z,78.42
2018-03-30T00:42:52.910Z,78.61
2018-03-30T00:43:52.835Z,78.70
2018-03-30T00:44:52.784Z,78.13
2018-03-30T00:45:52.733Z,78.70
2018-03-30T00:46:52.681Z,78.32
2018-03-30T00:47:52.636Z,78.23
2018-03-30T00:48:52.630Z,78.13
2018-03-30T00:49:52.533Z,78.51
2018-03-30T00:50:52.477Z,78.51
2018-03-30T00:51:52.427Z,78.55
2018-03-30T00:52:52.376Z,78.51
2018-03-30T00:53:52.326Z,78.42
2018-03-30T00:54:52.276Z,78.42
2018-03-30T00:55:52.226Z,78.32
2018-03-30T00:56:52.173Z,78.42
2018-03-30T00:57:52.120Z,78.70
2018-03-30T00:58:52.070Z,78.32
2018-03-30T00:59:52.019Z,78.32
2018-03-30T01:00:51.968Z,78.32
2018-03-30T01:01:51.918Z,78.70
2018-03-30T01:02:51.865Z,78.89
2018-03-30T01:03:51.816Z,78.70
2018-03-30T01:04:51.815Z,78.99
2018-03-30T01:05:51.714Z,79.36
2018-03-30T01:06:51.662Z,79.17
2018-03-30T01:07:51.612Z,79.14
2018-03-30T01:08:51.560Z,79.61
2018-03-30T01:09:51.510Z,79.23
2018-03-30T01:10:51.458Z,79.33
2018-03-30T01:11:51.408Z,79.90
2018-03-30T01:12:51.356Z,79.90
2018-03-30T01:13:51.306Z,80.27
2018-03-30T01:14:51.255Z,80.27
2018-03-30T01:15:51.204Z,80.75
2018-03-30T01:16:51.156Z,80.84
2018-03-30T01:17:51.102Z,80.46
2018-03-30T01:18:51.050Z,80.94
2018-03-30T01:19:51.007Z,80.94
2018-03-30T01:20:50.948Z,81.23
2018-03-30T01:21:50.897Z,81.13
2018-03-30T01:22:50.845Z,81.60
2018-03-30T01:23:50.794Z,81.51
2018-03-30T01:24:50.743Z,81.88
2018-03-30T01:25:50.692Z,81.41
2018-03-30T01:26:50.640Z,81.70
2018-03-30T01:27:50.590Z,81.94
2018-03-30T01:28:50.538Z,82.04
2018-03-30T01:29:50.487Z,81.75
2018-03-30T01:30:50.435Z,82.13
2018-03-30T01:31:50.384Z,82.51
2018-03-30T01:32:50.332Z,82.13
2018-03-30T01:33:50.282Z,82.13
2018-03-30T01:34:50.230Z,82.04
2018-03-30T01:35:50.178Z,82.60
2018-03-30T01:36:50.126Z,82.60
2018-03-30T01:37:50.076Z,82.89
2018-03-30T01:38:50.024Z,82.79
2018-03-30T01:39:49.972Z,82.79
2018-03-30T01:40:49.923Z,83.08
2018-03-30T01:41:49.870Z,83.46
2018-03-30T01:42:49.817Z,83.17
2018-03-30T01:43:49.771Z,83.17
2018-03-30T01:44:49.715Z,82.98
2018-03-30T01:45:49.663Z,82.60
2018-03-30T01:46:49.611Z,82.79
2018-03-30T01:47:49.560Z,82.79
2018-03-30T01:48:49.508Z,82.70
2018-03-30T01:49:49.457Z,82.70
2018-03-30T01:50:49.405Z,82.70
2018-03-30T01:51:49.353Z,82.79
2018-03-30T01:52:49.304Z,82.70
2018-03-30T01:53:49.251Z,82.79
2018-03-30T01:54:49.198Z,82.70
2018-03-30T01:55:49.147Z,82.79
2018-03-30T01:56:49.096Z,82.70
2018-03-30T01:57:49.044Z,82.89
2018-03-30T01:58:48.992Z,82.60
2018-03-30T01:59:48.940Z,82.89
2018-03-30T02:00:48.898Z,82.60
2018-03-30T02:01:48.838Z,82.89
2018-03-30T02:02:48.786Z,82.60
2018-03-30T02:03:48.733Z,82.70
2018-03-30T02:04:48.687Z,82.89
2018-03-30T02:05:48.630Z,82.98
2018-03-30T02:06:48.577Z,82.89
2018-03-30T02:07:48.526Z,82.60
2018-03-30T02:08:48.475Z,82.13
2018-03-30T02:09:48.423Z,82.04
2018-03-30T02:10:48.373Z,82.60
2018-03-30T02:11:48.319Z,82.04
2018-03-30T02:12:48.268Z,81.94
2018-03-30T02:13:48.216Z,82.51
2018-03-30T02:14:48.165Z,82.04
2018-03-30T02:15:48.112Z,82.42
2018-03-30T02:16:48.060Z,82.23
2018-03-30T02:17:48.063Z,82.13
2018-03-30T02:18:47.956Z,82.32
2018-03-30T02:19:47.905Z,82.60
2018-03-30T02:20:47.853Z,82.32
2018-03-30T02:21:47.802Z,82.42
2018-03-30T02:22:47.749Z,82.70
2018-03-30T02:23:47.704Z,82.23
2018-03-30T02:24:47.645Z,82.23
2018-03-30T02:25:47.648Z,82.42
2018-03-30T02:26:47.541Z,82.23
2018-03-30T02:27:47.493Z,82.32
2018-03-30T02:28:47.438Z,82.51
2018-03-30T02:29:47.385Z,82.51
2018-03-30T02:30:47.333Z,82.51
2018-03-30T02:31:47.283Z,82.23
2018-03-30T02:32:47.230Z,82.13
2018-03-30T02:33:47.179Z,81.75
2018-03-30T02:34:47.127Z,81.85
2018-03-30T02:35:47.076Z,82.32
2018-03-30T02:36:47.024Z,82.32
2018-03-30T02:37:46.971Z,82.42
2018-03-30T02:38:46.919Z,82.32
2018-03-30T02:39:46.867Z,82.23
2018-03-30T02:40:46.817Z,81.75
2018-03-30T02:41:46.768Z,81.85
2018-03-30T02:42:46.711Z,81.94
2018-03-30T02:43:46.661Z,81.85
2018-03-30T02:44:46.611Z,82.04
2018-03-30T02:45:46.557Z,82.23
2018-03-30T02:46:46.504Z,81.27
2018-03-30T02:47:46.464Z,81.37
2018-03-30T02:48:46.401Z,81.56
2018-03-30T02:49:46.387Z,81.66
2018-03-30T02:50:46.297Z,81.27
2018-03-30T02:51:46.247Z,81.37
2018-03-30T02:52:46.195Z,81.47
2018-03-30T02:53:46.143Z,81.47
2018-03-30T02:54:46.090Z,81.47
2018-03-30T02:55:46.039Z,81.47
2018-03-30T02:56:45.986Z,81.66
2018-03-30T02:57:45.934Z,81.47
2018-03-30T02:58:45.883Z,81.47
2018-03-30T02:59:45.832Z,81.56
2018-03-30T03:00:45.788Z,81.47
2018-03-30T03:01:45.728Z,81.66
2018-03-30T03:02:45.676Z,81.85
2018-03-30T03:03:45.625Z,81.85
2018-03-30T03:04:45.579Z,81.47
2018-03-30T03:05:45.521Z,81.66
2018-03-30T03:06:45.468Z,81.37
2018-03-30T03:07:45.416Z,81.75
2018-03-30T03:08:45.365Z,81.75
2018-03-30T03:09:45.314Z,82.13
2018-03-30T03:10:45.260Z,81.99
2018-03-30T03:11:45.209Z,82.04
2018-03-30T03:12:45.158Z,81.90
2018-03-30T03:13:45.106Z,82.28
2018-03-30T03:14:45.056Z,82.28
2018-03-30T03:15:45.007Z,82.09
2018-03-30T03:16:44.951Z,82.09
2018-03-30T03:17:44.899Z,82.28
2018-03-30T03:18:44.845Z,82.66
2018-03-30T03:19:44.797Z,82.56
2018-03-30T03:20:44.747Z,82.66
2018-03-30T03:21:44.695Z,82.85
2018-03-30T03:22:44.638Z,82.85
2018-03-30T03:23:44.587Z,82.75
2018-03-30T03:24:44.535Z,82.75
2018-03-30T03:25:44.490Z,82.94
2018-03-30T03:26:44.432Z,83.13
2018-03-30T03:27:44.379Z,83.13
2018-03-30T03:28:44.329Z,83.23
2018-03-30T03:29:44.275Z,83.32
2018-03-30T03:30:44.224Z,83.51
2018-03-30T03:31:44.173Z,83.23
2018-03-30T03:32:44.120Z,83.61
2018-03-30T03:33:44.068Z,83.42
2018-03-30T03:34:44.026Z,83.61
2018-03-30T03:35:43.963Z,83.61
2018-03-30T03:36:43.911Z,83.70
2018-03-30T03:37:43.859Z,83.61
2018-03-30T03:38:43.806Z,83.51
2018-03-30T03:39:43.755Z,83.56
2018-03-30T03:40:43.703Z,83.61
2018-03-30T03:41:43.653Z,83.61
2018-03-30T03:42:43.598Z,83.23
2018-03-30T03:43:43.547Z,83.28
2018-03-30T03:44:43.494Z,83.37
2018-03-30T03:45:43.442Z,83.28
2018-03-30T03:46:43.389Z,83.47
2018-03-30T03:47:43.338Z,83.28
2018-03-30T03:48:43.291Z,83.37
2018-03-30T03:49:43.234Z,83.28
2018-03-30T03:50:43.180Z,83.28
2018-03-30T03:51:43.128Z,83.56
2018-03-30T03:52:43.076Z,83.09
2018-03-30T03:53:43.025Z,83.47
2018-03-30T03:54:42.971Z,83.47
2018-03-30T03:55:42.920Z,83.37
2018-03-30T03:56:42.870Z,83.37
2018-03-30T03:57:42.815Z,83.28
2018-03-30T03:58:42.762Z,83.28
2018-03-30T03:59:42.710Z,83.56
2018-03-30T04:00:42.658Z,83.09
2018-03-30T04:01:42.606Z,83.09
2018-03-30T04:02:42.553Z,83.00
2018-03-30T04:03:42.501Z,83.18
2018-03-30T04:04:42.450Z,83.37
2018-03-30T04:05:42.409Z,83.18
2018-03-30T04:06:42.344Z,83.00
2018-03-30T04:07:42.293Z,83.18
2018-03-30T04:08:42.242Z,83.00
2018-03-30T04:09:42.186Z,82.62
2018-03-30T04:10:42.134Z,82.81
2018-03-30T04:11:42.082Z,82.52
2018-03-30T04:12:42.035Z,82.71
2018-03-30T04:13:41.981Z,82.71
2018-03-30T04:14:41.924Z,82.43
2018-03-30T04:15:41.872Z,82.71
2018-03-30T04:16:41.820Z,82.71
2018-03-30T04:17:41.768Z,82.52
2018-03-30T04:18:41.714Z,82.71
2018-03-30T04:19:41.662Z,82.52
2018-03-30T04:20:41.610Z,82.52
2018-03-30T04:21:41.557Z,82.52
2018-03-30T04:22:41.504Z,82.71
2018-03-30T04:23:41.456Z,82.81
2018-03-30T04:24:41.400Z,82.71
2018-03-30T04:25:41.348Z,83.00
2018-03-30T04:26:41.294Z,83.00
2018-03-30T04:27:41.242Z,82.81
2018-03-30T04:28:41.189Z,82.90
2018-03-30T04:29:41.137Z,82.90
2018-03-30T04:30:41.084Z,82.90
2018-03-30T04:31:41.032Z,82.90
2018-03-30T04:32:40.985Z,82.90
2018-03-30T04:33:40.931Z,82.71
2018-03-30T04:34:40.874Z,82.90
2018-03-30T04:35:40.821Z,82.90
2018-03-30T04:36:40.773Z,82.90
2018-03-30T04:37:40.717Z,82.90
2018-03-30T04:38:40.664Z,82.81
2018-03-30T04:39:40.612Z,83.00
2018-03-30T04:40:40.559Z,82.90
2018-03-30T04:41:40.506Z,82.90
2018-03-30T04:42:40.453Z,82.62
2018-03-30T04:43:40.401Z,82.81
2018-03-30T04:44:40.349Z,82.52
2018-03-30T04:45:40.298Z,81.95
2018-03-30T04:46:40.244Z,82.24
2018-03-30T04:47:40.191Z,82.33
2018-03-30T04:48:40.141Z,82.05
2018-03-30T04:49:40.087Z,82.14
2018-03-30T04:50:40.033Z,82.24
2018-03-30T04:51:39.981Z,82.05
2018-03-30T04:52:39.928Z,82.05
2018-03-30T04:53:39.876Z,81.86
2018-03-30T04:54:39.823Z,81.86
2018-03-30T04:55:39.770Z,81.57
2018-03-30T04:56:39.718Z,81.38
2018-03-30T04:57:39.666Z,81.57
2018-03-30T04:58:39.613Z,81.38
2018-03-30T04:59:39.561Z,81.29
2018-03-30T05:00:39.511Z,81.38
2018-03-30T05:01:39.456Z,80.76
2018-03-30T05:02:39.412Z,80.63
2018-03-30T05:03:39.350Z,80.72
2018-03-30T05:04:39.298Z,80.38
2018-03-30T05:05:39.246Z,80.00
2018-03-30T05:06:39.193Z,79.82
2018-03-30T05:07:39.141Z,80.00
2018-03-30T05:08:39.089Z,79.72
2018-03-30T05:09:39.037Z,79.44
2018-03-30T05:10:38.985Z,79.15
2018-03-30T05:11:38.932Z,78.77
2018-03-30T05:12:38.880Z,78.58
2018-03-30T05:13:38.828Z,78.49
2018-03-30T05:14:38.775Z,78.58
2018-03-30T05:15:38.723Z,78.77
2018-03-30T05:16:38.673Z,78.11
2018-03-30T05:17:38.669Z,78.20
2018-03-30T05:18:38.568Z,77.92
2018-03-30T05:19:38.514Z,78.11
2018-03-30T05:20:38.462Z,78.39
2018-03-30T05:21:38.411Z,78.11
2018-03-30T05:22:38.358Z,77.92
2018-03-30T05:23:38.306Z,77.64
2018-03-30T05:24:38.257Z,77.35
2018-03-30T05:25:38.203Z,76.87
2018-03-30T05:26:38.150Z,77.25
2018-03-30T05:27:38.098Z,77.25
2018-03-30T05:28:38.047Z,76.97
2018-03-30T05:29:37.995Z,76.68
2018-03-30T05:30:37.942Z,76.40
2018-03-30T05:31:37.891Z,76.50
2018-03-30T05:32:37.840Z,76.40
2018-03-30T05:33:37.788Z,75.55
2018-03-30T05:34:37.736Z,75.74
2018-03-30T05:35:37.687Z,75.64
2018-03-30T05:36:37.638Z,76.06
2018-03-30T05:37:37.581Z,75.40
2018-03-30T05:38:37.529Z,76.25
2018-03-30T05:39:37.477Z,75.96
2018-03-30T05:40:37.426Z,75.59
2018-03-30T05:41:37.375Z,75.59
2018-03-30T05:42:37.322Z,75.49
2018-03-30T05:43:37.271Z,75.11
2018-03-30T05:44:37.227Z,74.64
2018-03-30T05:45:37.169Z,74.83
2018-03-30T05:46:37.116Z,74.83
2018-03-30T05:47:37.067Z,74.35
2018-03-30T05:48:37.014Z,74.39
2018-03-30T05:49:36.964Z,73.82
2018-03-30T05:50:36.911Z,74.20
2018-03-30T05:51:36.860Z,73.16
2018-03-30T05:52:36.810Z,73.25
2018-03-30T05:53:36.759Z,72.78
2018-03-30T05:54:36.711Z,73.35
2018-03-30T05:55:36.656Z,72.78
2018-03-30T05:56:36.605Z,72.88
2018-03-30T05:57:36.555Z,72.40
2018-03-30T05:58:36.503Z,72.11
2018-03-30T05:59:36.453Z,71.73
2018-03-30T06:00:36.408Z,71.83
2018-03-30T06:01:36.358Z,71.45
2018-03-30T06:02:36.302Z,71.55
2018-03-30T06:03:36.254Z,71.73
2018-03-30T06:04:36.200Z,71.45
2018-03-30T06:05:36.149Z,70.98
2018-03-30T06:06:36.098Z,70.98
2018-03-30T06:07:36.051Z,71.17
2018-03-30T06:08:35.997Z,71.36
2018-03-30T06:09:35.947Z,71.36
2018-03-30T06:10:35.895Z,70.98
2018-03-30T06:11:35.845Z,70.88
2018-03-30T06:12:35.794Z,70.59
2018-03-30T06:13:35.744Z,70.06
2018-03-30T06:14:35.693Z,69.78
2018-03-30T06:15:35.643Z,69.40
2018-03-30T06:16:35.593Z,69.40
2018-03-30T06:17:35.553Z,69.02
2018-03-30T06:18:35.492Z,69.02
2018-03-30T06:19:35.442Z,68.48
2018-03-30T06:20:35.392Z,68.01
2018-03-30T06:21:35.342Z,68.29
2018-03-30T06:22:35.292Z,68.19
2018-03-30T06:23:35.242Z,67.44
2018-03-30T06:24:35.193Z,67.44
2018-03-30T06:25:35.143Z,67.09
2018-03-30T06:26:35.095Z,66.90
2018-03-30T06:27:35.045Z,65.95
2018-03-30T06:28:34.995Z,65.41
2018-03-30T06:29:34.947Z,65.80
2018-03-30T06:30:34.897Z,64.69
2018-03-30T06:31:34.848Z,63.83
2018-03-30T06:32:34.801Z,63.39
2018-03-30T06:33:34.752Z,63.10
2018-03-30T06:34:34.702Z,62.34
2018-03-30T06:35:34.659Z,61.58
2018-03-30T06:36:34.607Z,61.80
2018-03-30T06:37:34.559Z,61.22
2018-03-30T06:38:34.510Z,60.40
2018-03-30T06:39:34.464Z,59.67
2018-03-30T06:40:34.417Z,58.26
2018-03-30T06:41:34.370Z,57.24
2018-03-30T06:42:34.322Z,56.32
2018-03-30T06:43:34.276Z,55.36
2018-03-30T06:44:34.229Z,54.72
2018-03-30T06:45:34.184Z,53.86
2018-03-30T06:46:34.137Z,53.58
2018-03-30T06:47:34.092Z,53.80
2018-03-30T06:48:34.047Z,53.13
2018-03-30T06:49:34.002Z,52.46
2018-03-30T06:50:33.956Z,52.55
2018-03-30T06:51:33.911Z,51.79
2018-03-30T06:52:33.868Z,51.89
2018-03-30T06:53:33.823Z,51.70
2018-03-30T06:54:33.777Z,51.43
2018-03-30T06:55:33.735Z,51.05
2018-03-30T06:56:33.688Z,50.19
2018-03-30T06:57:33.645Z,49.64
2018-03-30T06:58:33.640Z,49.26
2018-03-30T06:59:33.556Z,48.33
2018-03-30T07:00:33.514Z,48.04
2018-03-30T07:01:33.469Z,47.11
2018-03-30T07:02:33.424Z,46.82
2018-03-30T07:03:33.381Z,47.39
2018-03-30T07:04:33.338Z,46.55
2018-03-30T07:05:33.296Z,46.46
2018-03-30T07:06:33.255Z,45.62
2018-03-30T07:07:33.209Z,45.14
2018-03-30T07:08:33.166Z,44.47
2018-03-30T07:09:33.124Z,44.47
2018-03-30T07:10:33.081Z,44.56
2018-03-30T07:11:33.090Z,45.04
2018-03-30T07:12:33.001Z,44.27
2018-03-30T07:13:32.955Z,44.16
2018-03-30T07:14:32.911Z,45.12
2018-03-30T07:15:32.871Z,45.09
2018-03-30T07:16:32.827Z,44.90
2018-03-30T07:17:32.785Z,45.26
2018-03-30T07:18:32.741Z,45.55
2018-03-30T07:19:32.699Z,45.36
2018-03-30T07:20:32.658Z,45.36
2018-03-30T07:21:32.655Z,45.17
2018-03-30T07:22:32.613Z,45.26
2018-03-30T07:23:32.529Z,45.09
2018-03-30T07:24:32.488Z,44.71
2018-03-30T07:25:32.444Z,43.95
2018-03-30T07:26:32.408Z,43.85
2018-03-30T07:27:32.358Z,44.73
2018-03-30T07:28:32.317Z,44.26
2018-03-30T07:29:32.274Z,43.97
2018-03-30T07:30:32.231Z,43.59
2018-03-30T07:31:32.189Z,43.20
2018-03-30T07:32:32.147Z,43.01
2018-03-30T07:33:32.104Z,43.39
2018-03-30T07:34:32.061Z,42.72
2018-03-30T07:35:32.020Z,42.53
2018-03-30T07:36:31.977Z,42.65
2018-03-30T07:37:31.935Z,42.17
2018-03-30T07:38:31.892Z,42.17
2018-03-30T07:39:31.848Z,41.80
2018-03-30T07:40:31.808Z,41.04
2018-03-30T07:41:31.770Z,40.87
2018-03-30T07:42:31.724Z,39.73
2018-03-30T07:43:31.696Z,39.45
2018-03-30T07:44:31.641Z,38.60
2018-03-30T07:45:31.605Z,38.04
2018-03-30T07:46:31.560Z,37.47
2018-03-30T07:47:31.518Z,37.10
2018-03-30T07:48:31.478Z,36.54
2018-03-30T07:49:31.437Z,36.47
2018-03-30T07:50:31.395Z,36.08
2018-03-30T07:51:31.360Z,35.79
2018-03-30T07:52:31.316Z,35.89
2018-03-30T07:53:31.277Z,35.68
2018-03-30T07:54:31.236Z,36.25
2018-03-30T07:55:31.198Z,35.95
2018-03-30T07:56:31.158Z,36.53
2018-03-30T07:57:31.118Z,36.32
2018-03-30T07:58:31.077Z,36.13
2018-03-30T07:59:31.037Z,36.51
2018-03-30T08:00:30.997Z,36.68
2018-03-30T08:01:30.963Z,36.78
2018-03-30T08:02:30.919Z,36.88
2018-03-30T08:03:30.937Z,36.86
2018-03-30T08:04:30.836Z,36.86
2018-03-30T08:05:30.796Z,37.13
2018-03-30T08:06:30.762Z,37.51
2018-03-30T08:07:30.721Z,37.51
2018-03-30T08:08:30.674Z,37.15
2018-03-30T08:09:30.633Z,37.05
2018-03-30T08:10:30.592Z,36.86
2018-03-30T08:11:30.557Z,36.86
2018-03-30T08:12:30.512Z,36.11
2018-03-30T08:13:30.520Z,36.38
2018-03-30T08:14:30.429Z,36.47
2018-03-30T08:15:30.389Z,36.11
2018-03-30T08:16:30.347Z,36.09
2018-03-30T08:17:30.307Z,36.18
2018-03-30T08:18:30.266Z,36.28
2018-03-30T08:19:30.225Z,36.66
2018-03-30T08:20:30.185Z,36.47
2018-03-30T08:21:30.145Z,36.47
2018-03-30T08:22:30.150Z,36.30
2018-03-30T08:23:30.063Z,36.30
2018-03-30T08:24:30.022Z,36.20
2018-03-30T08:25:29.988Z,35.91
2018-03-30T08:26:29.939Z,35.74
2018-03-30T08:27:29.900Z,34.99
2018-03-30T08:28:29.859Z,34.25
2018-03-30T08:29:29.819Z,33.50
2018-03-30T08:30:29.788Z,32.38
2018-03-30T08:31:29.740Z,31.33
2018-03-30T08:32:29.700Z,30.58
2018-03-30T08:33:29.661Z,29.71
2018-03-30T08:34:29.622Z,29.91
2018-03-30T08:35:29.583Z,29.64
2018-03-30T08:36:29.551Z,29.55
2018-03-30T08:37:29.507Z,29.25
2018-03-30T08:38:29.468Z,28.97
2018-03-30T08:39:29.431Z,28.66
2018-03-30T08:40:29.397Z,28.66
2018-03-30T08:41:29.356Z,28.76
2018-03-30T08:42:29.317Z,28.58
2018-03-30T08:43:29.280Z,28.67
2018-03-30T08:44:29.243Z,28.40
2018-03-30T08:45:29.207Z,28.11
2018-03-30T08:46:29.171Z,27.24
2018-03-30T08:47:29.132Z,27.53
2018-03-30T08:48:29.096Z,27.14
2018-03-30T08:49:29.059Z,27.23
2018-03-30T08:50:29.022Z,27.13
2018-03-30T08:51:28.985Z,27.42
2018-03-30T08:52:28.948Z,27.33
2018-03-30T08:53:28.911Z,27.50
2018-03-30T08:54:28.876Z,27.40
2018-03-30T08:55:28.837Z,27.22
2018-03-30T08:56:28.800Z,27.39
2018-03-30T08:57:28.763Z,27.67
2018-03-30T08:58:28.726Z,28.04
2018-03-30T08:59:28.689Z,28.72
2018-03-30T09:00:28.652Z,28.89
2018-03-30T09:01:28.615Z,29.47
2018-03-30T09:02:28.575Z,29.74
2018-03-30T09:03:28.538Z,29.65
2018-03-30T09:04:28.500Z,30.69
2018-03-30T09:05:28.562Z,31.08
2018-03-30T09:06:28.423Z,30.68
2018-03-30T09:07:28.385Z,30.85
2018-03-30T09:08:28.346Z,31.79
2018-03-30T09:09:28.307Z,32.73
2018-03-30T09:10:28.267Z,33.50
2018-03-30T09:11:28.228Z,33.69
2018-03-30T09:12:28.191Z,34.15
2018-03-30T09:13:28.148Z,34.44
2018-03-30T09:14:28.108Z,34.61
2018-03-30T09:15:28.067Z,34.71
2018-03-30T09:16:28.027Z,35.08
2018-03-30T09:17:27.987Z,35.84
2018-03-30T09:18:27.945Z,35.84
2018-03-30T09:19:27.904Z,36.32
2018-03-30T09:20:27.871Z,36.13
2018-03-30T09:21:27.823Z,36.42
2018-03-30T09:22:27.781Z,36.49
2018-03-30T09:23:27.739Z,36.79
2018-03-30T09:24:27.698Z,36.79
2018-03-30T09:25:27.657Z,37.07
2018-03-30T09:26:27.620Z,37.72
2018-03-30T09:27:27.572Z,37.82
2018-03-30T09:28:27.535Z,38.37
2018-03-30T09:29:27.493Z,38.76
2018-03-30T09:30:27.450Z,38.95
2018-03-30T09:31:27.404Z,39.23
2018-03-30T09:32:27.364Z,39.23
2018-03-30T09:33:27.319Z,39.50
2018-03-30T09:34:27.279Z,39.89
2018-03-30T09:35:27.233Z,40.63
2018-03-30T09:36:27.191Z,40.92
2018-03-30T09:37:27.148Z,41.11
2018-03-30T09:38:27.103Z,40.92
2018-03-30T09:39:27.061Z,41.68
2018-03-30T09:40:27.018Z,42.07
2018-03-30T09:41:26.974Z,42.04
2018-03-30T09:42:26.932Z,42.24
2018-03-30T09:43:26.887Z,42.24
2018-03-30T09:44:26.845Z,42.71
2018-03-30T09:45:26.799Z,43.09
2018-03-30T09:46:26.755Z,43.09
2018-03-30T09:47:26.760Z,43.00
2018-03-30T09:48:26.667Z,43.09
2018-03-30T09:49:26.623Z,43.65
2018-03-30T09:50:26.578Z,44.22
2018-03-30T09:51:26.534Z,44.51
2018-03-30T09:52:26.490Z,43.93
2018-03-30T09:53:26.446Z,44.22
2018-03-30T09:54:26.400Z,44.22
2018-03-30T09:55:26.356Z,44.31
2018-03-30T09:56:26.324Z,44.41
2018-03-30T09:57:26.268Z,44.60
2018-03-30T09:58:26.222Z,44.89
2018-03-30T09:59:26.179Z,44.89
2018-03-30T10:00:26.133Z,45.27
2018-03-30T10:01:26.089Z,45.17
2018-03-30T10:02:26.044Z,45.08
2018-03-30T10:03:25.999Z,45.46
2018-03-30T10:04:25.955Z,45.37
2018-03-30T10:05:25.910Z,45.46
2018-03-30T10:06:25.868Z,45.46
2018-03-30T10:07:25.820Z,45.46
2018-03-30T10:08:25.775Z,45.27
2018-03-30T10:09:25.730Z,44.79
2018-03-30T10:10:25.685Z,45.17
2018-03-30T10:11:25.641Z,45.10
2018-03-30T10:12:25.596Z,44.72
2018-03-30T10:13:25.552Z,44.05
2018-03-30T10:14:25.508Z,44.45
2018-03-30T10:15:25.461Z,44.26
2018-03-30T10:16:25.425Z,43.69
2018-03-30T10:17:25.374Z,44.45
2018-03-30T10:18:25.332Z,44.07
2018-03-30T10:19:25.284Z,43.69
2018-03-30T10:20:25.238Z,44.74
2018-03-30T10:21:25.194Z,44.55
2018-03-30T10:22:25.149Z,43.98
2018-03-30T10:23:25.105Z,43.88
2018-03-30T10:24:25.076Z,44.26
2018-03-30T10:25:25.017Z,44.26
2018-03-30T10:26:24.971Z,43.98
2018-03-30T10:27:24.929Z,43.79
2018-03-30T10:28:24.886Z,43.88
2018-03-30T10:29:24.839Z,43.88
2018-03-30T10:30:24.795Z,43.40
2018-03-30T10:31:24.754Z,43.79
2018-03-30T10:32:24.708Z,43.79
2018-03-30T10:33:24.663Z,42.94
2018-03-30T10:34:24.618Z,43.04
2018-03-30T10:35:24.574Z,43.04
2018-03-30T10:36:24.534Z,43.33
2018-03-30T10:37:24.487Z,42.85
2018-03-30T10:38:24.442Z,43.33
2018-03-30T10:39:24.400Z,43.12
2018-03-30T10:40:24.355Z,43.02
2018-03-30T10:41:24.311Z,43.79
2018-03-30T10:42:24.270Z,43.14
2018-03-30T10:43:24.223Z,43.33
2018-03-30T10:44:24.180Z,43.23
2018-03-30T10:45:24.135Z,43.14
2018-03-30T10:46:24.091Z,43.23
2018-03-30T10:47:24.048Z,43.33
2018-03-30T10:48:24.003Z,43.14
2018-03-30T10:49:23.960Z,43.43
2018-03-30T10:50:23.915Z,43.14
2018-03-30T10:51:23.872Z,43.50
2018-03-30T10:52:23.828Z,43.40
2018-03-30T10:53:23.785Z,44.07
2018-03-30T10:54:23.740Z,44.26
2018-03-30T10:55:23.699Z,44.65
2018-03-30T10:56:23.653Z,43.79
2018-03-30T10:57:23.609Z,44.45
2018-03-30T10:58:23.564Z,43.98
2018-03-30T10:59:23.520Z,43.86
2018-03-30T11:00:23.481Z,43.95
2018-03-30T11:01:23.432Z,44.34
2018-03-30T11:02:23.387Z,44.72
2018-03-30T11:03:23.344Z,45.01
2018-03-30T11:04:23.301Z,45.01
2018-03-30T11:05:23.305Z,44.91
2018-03-30T11:06:23.213Z,45.20
2018-03-30T11:07:23.165Z,45.39
2018-03-30T11:08:23.206Z,45.37
2018-03-30T11:09:23.078Z,45.65
2018-03-30T11:10:23.031Z,45.65
2018-03-30T11:11:22.988Z,45.84
2018-03-30T11:12:22.943Z,45.94
2018-03-30T11:13:22.898Z,45.94
2018-03-30T11:14:22.858Z,46.13
2018-03-30T11:15:22.808Z,46.03
2018-03-30T11:16:22.764Z,46.22
2018-03-30T11:17:22.725Z,46.13
2018-03-30T11:18:22.674Z,46.03
2018-03-30T11:19:22.629Z,46.51
2018-03-30T11:20:22.585Z,46.22
2018-03-30T11:21:22.540Z,46.42
2018-03-30T11:22:22.495Z,46.32
2018-03-30T11:23:22.450Z,46.42
2018-03-30T11:24:22.405Z,46.61
2018-03-30T11:25:22.361Z,46.58
2018-03-30T11:26:22.317Z,46.68
2018-03-30T11:27:22.271Z,46.39
2018-03-30T11:28:22.226Z,47.34
2018-03-30T11:29:22.181Z,46.87
2018-03-30T11:30:22.135Z,46.68
2018-03-30T11:31:22.090Z,46.87
2018-03-30T11:32:22.045Z,47.06
2018-03-30T11:33:22.000Z,46.97
2018-03-30T11:34:21.954Z,46.84
2018-03-30T11:35:21.909Z,47.42
2018-03-30T11:36:21.897Z,48.18
2018-03-30T11:37:21.819Z,48.08
2018-03-30T11:38:21.773Z,48.08
2018-03-30T11:39:21.728Z,48.08
2018-03-30T11:40:21.682Z,48.18
2018-03-30T11:41:21.638Z,48.16
2018-03-30T11:42:21.591Z,48.35
2018-03-30T11:43:21.645Z,47.78
2018-03-30T11:44:21.499Z,47.87
2018-03-30T11:45:21.460Z,47.68
2018-03-30T11:46:21.407Z,47.87
2018-03-30T11:47:21.361Z,48.07
2018-03-30T11:48:21.317Z,48.07
2018-03-30T11:49:21.270Z,48.16
2018-03-30T11:50:21.223Z,48.63
2018-03-30T11:51:21.177Z,48.80
2018-03-30T11:52:21.131Z,49.40
2018-03-30T11:53:21.084Z,49.28
2018-03-30T11:54:21.041Z,49.30
2018-03-30T11:55:20.992Z,48.92
2018-03-30T11:56:20.945Z,48.54
2018-03-30T11:57:20.905Z,48.54
2018-03-30T11:58:20.853Z,48.54
2018-03-30T11:59:20.807Z,48.63
2018-03-30T12:00:20.761Z,48.63
2018-03-30T12:01:20.715Z,48.44
2018-03-30T12:02:20.668Z,48.63
2018-03-30T12:03:20.621Z,49.40
2018-03-30T12:04:20.583Z,49.30
2018-03-30T12:05:20.528Z,49.11
2018-03-30T12:06:20.481Z,49.11
2018-03-30T12:07:20.435Z,49.30
2018-03-30T12:08:20.389Z,49.21
2018-03-30T12:09:20.345Z,49.11
2018-03-30T12:10:20.296Z,49.40
2018-03-30T12:11:20.251Z,49.02
2018-03-30T12:12:20.204Z,49.11
2018-03-30T12:13:20.158Z,48.92
2018-03-30T12:14:20.111Z,49.02
2018-03-30T12:15:20.065Z,49.11
2018-03-30T12:16:20.018Z,49.21
2018-03-30T12:17:19.972Z,49.30
2018-03-30T12:18:19.925Z,49.30
2018-03-30T12:19:19.879Z,48.83
2018-03-30T12:20:19.833Z,48.25
2018-03-30T12:21:19.787Z,48.44
2018-03-30T12:22:19.740Z,48.16
2018-03-30T12:23:19.695Z,48.07
2018-03-30T12:24:19.648Z,47.68
2018-03-30T12:25:19.615Z,48.07
2018-03-30T12:26:19.555Z,47.68
2018-03-30T12:27:19.513Z,47.78
2018-03-30T12:28:19.463Z,48.16
2018-03-30T12:29:19.420Z,47.39
2018-03-30T12:30:19.370Z,47.39
2018-03-30T12:31:19.325Z,46.92
2018-03-30T12:32:19.279Z,46.92
2018-03-30T12:33:19.235Z,47.11
2018-03-30T12:34:19.192Z,46.63
2018-03-30T12:35:19.140Z,46.54
2018-03-30T12:36:19.094Z,46.73
2018-03-30T12:37:19.050Z,46.73
2018-03-30T12:38:19.001Z,47.02
2018-03-30T12:39:18.956Z,46.73
2018-03-30T12:40:18.909Z,46.34
2018-03-30T12:41:18.864Z,46.15
2018-03-30T12:42:18.816Z,46.34
2018-03-30T12:43:18.769Z,46.34
2018-03-30T12:44:18.723Z,46.54
2018-03-30T12:45:18.677Z,46.34
2018-03-30T12:46:18.641Z,46.25
2018-03-30T12:47:18.584Z,46.44
2018-03-30T12:48:18.537Z,46.54
2018-03-30T12:49:18.492Z,46.25
2018-03-30T12:50:18.447Z,46.34
2018-03-30T12:51:18.399Z,46.25
2018-03-30T12:52:18.354Z,46.06